createdAt,value
2018-03-08T00:00:20.218Z,93.06
2018-03-08T00:02:49.511Z,92.91
2018-03-08T00:05:18.758Z,93.04
2018-03-08T00:07:48.245Z,92.91
2018-03-08T00:10:17.566Z,92.79
2018-03-08T00:12:46.918Z,93.09
2018-03-08T00:15:16.357Z,93.75
2018-03-08T00:17:45.857Z,93.57
2018-03-08T00:20:15.271Z,91.29
2018-03-08T00:22:44.391Z,90.90
2018-03-08T00:25:13.825Z,92.11
2018-03-08T00:27:43.329Z,92.62
2018-03-08T00:30:12.732Z,93.21
2018-03-08T00:32:42.195Z,93.65
2018-03-08T00:35:11.981Z,93.17
2018-03-08T00:37:41.574Z,91.99
2018-03-08T00:40:10.549Z,92.70
2018-03-08T00:42:40.062Z,91.82
2018-03-08T00:45:09.338Z,92.43
2018-03-08T00:47:38.657Z,91.93
2018-03-08T00:50:07.857Z,92.37
2018-03-08T00:52:37.083Z,92.47
2018-03-08T00:55:06.077Z,92.50
2018-03-08T00:57:35.453Z,92.07
2018-03-08T01:00:04.863Z,92.60
2018-03-08T01:02:34.512Z,92.33
2018-03-08T01:05:03.808Z,92.29
2018-03-08T01:07:33.022Z,92.48
2018-03-08T01:10:02.424Z,92.16
2018-03-08T01:12:31.869Z,92.38
2018-03-08T01:15:01.373Z,92.42
2018-03-08T01:17:30.854Z,92.37
2018-03-08T01:20:00.201Z,89.54
2018-03-08T01:22:29.843Z,90.92
2018-03-08T01:24:58.884Z,91.27
2018-03-08T01:27:28.156Z,91.67
2018-03-08T01:29:57.629Z,91.70
2018-03-08T01:32:26.809Z,91.84
2018-03-08T01:34:55.928Z,91.52
2018-03-08T01:37:25.095Z,91.71
2018-03-08T01:39:54.317Z,91.53
2018-03-08T01:42:23.625Z,91.51
2018-03-08T01:44:52.881Z,91.36
2018-03-08T01:47:22.284Z,91.17
2018-03-08T01:49:51.565Z,90.66
2018-03-08T01:52:21.114Z,90.28
2018-03-08T01:54:50.237Z,89.38
2018-03-08T01:57:19.755Z,89.68
2018-03-08T01:59:49.163Z,90.37
2018-03-08T02:02:18.508Z,91.10
2018-03-08T02:04:47.697Z,91.92
2018-03-08T02:07:17.036Z,92.42
2018-03-08T02:09:46.060Z,92.34
2018-03-08T02:12:16.567Z,92.34
2018-03-08T02:14:46.144Z,92.96
2018-03-08T02:17:15.429Z,92.91
2018-03-08T02:19:44.937Z,93.61
2018-03-08T02:22:13.961Z,93.88
2018-03-08T02:24:43.342Z,93.22
2018-03-08T02:27:12.529Z,92.24
2018-03-08T02:29:41.987Z,93.11
2018-03-08T02:32:11.304Z,93.46
2018-03-08T02:34:40.667Z,93.97
2018-03-08T02:37:10.044Z,94.19
2018-03-08T02:39:39.594Z,94.39
2018-03-08T02:42:08.658Z,93.87
2018-03-08T02:44:38.027Z,94.11
2018-03-08T02:47:07.349Z,94.24
2018-03-08T02:49:36.604Z,94.08
2018-03-08T02:52:05.898Z,93.20
2018-03-08T02:54:35.560Z,94.36
2018-03-08T02:57:04.962Z,93.87
2018-03-08T02:59:34.158Z,94.33
2018-03-08T03:02:03.581Z,93.81
2018-03-08T03:04:33.065Z,94.09
2018-03-08T03:07:02.630Z,92.40
2018-03-08T03:09:31.705Z,92.90
2018-03-08T03:12:00.984Z,93.65
2018-03-08T03:14:30.209Z,94.18
2018-03-08T03:17:00.054Z,93.83
2018-03-08T03:19:29.396Z,93.75
2018-03-08T03:21:58.741Z,93.87
2018-03-08T03:24:28.015Z,93.93
2018-03-08T03:26:57.285Z,93.21
2018-03-08T03:29:26.585Z,92.78
2018-03-08T03:31:55.879Z,92.95
2018-03-08T03:34:25.295Z,92.64
2018-03-08T03:36:54.665Z,91.78
2018-03-08T03:39:24.347Z,91.57
2018-03-08T03:41:53.722Z,91.90
2018-03-08T03:44:22.865Z,92.08
2018-03-08T03:46:51.933Z,91.72
2018-03-08T03:49:21.223Z,91.98
2018-03-08T03:51:50.534Z,91.94
2018-03-08T03:54:19.783Z,92.15
2018-03-08T03:56:49.025Z,93.00
2018-03-08T03:59:18.005Z,92.22
2018-03-08T04:01:47.278Z,92.50
2018-03-08T04:04:16.550Z,92.92
2018-03-08T04:06:45.788Z,92.91
2018-03-08T04:09:14.989Z,93.39
2018-03-08T04:11:44.506Z,91.73
2018-03-08T04:14:13.963Z,92.00
2018-03-08T04:16:43.077Z,91.55
2018-03-08T04:19:12.605Z,92.57
2018-03-08T04:21:41.981Z,93.04
2018-03-08T04:24:11.369Z,94.11
2018-03-08T04:26:40.729Z,93.33
2018-03-08T04:29:10.012Z,93.32
2018-03-08T04:31:39.630Z,93.24
2018-03-08T04:34:09.225Z,92.79
2018-03-08T04:36:38.525Z,92.80
2018-03-08T04:39:07.976Z,93.04
2018-03-08T04:41:37.537Z,92.38
2018-03-08T04:44:07.000Z,92.22
2018-03-08T04:46:36.117Z,91.97
2018-03-08T04:49:05.665Z,92.03
2018-03-08T04:51:35.089Z,92.19
2018-03-08T04:54:04.458Z,91.88
2018-03-08T04:56:33.907Z,91.97
2018-03-08T04:59:02.869Z,91.50
2018-03-08T05:01:31.821Z,91.85
2018-03-08T05:04:01.101Z,91.55
2018-03-08T05:06:30.502Z,91.95
2018-03-08T05:08:59.937Z,88.58
2018-03-08T05:11:29.054Z,89.06
2018-03-08T05:13:58.244Z,88.41
2018-03-08T05:16:27.841Z,88.34
2018-03-08T05:18:57.257Z,88.73
2018-03-08T05:21:26.673Z,89.25
2018-03-08T05:23:56.165Z,88.78
2018-03-08T05:26:25.401Z,88.95
2018-03-08T05:28:54.724Z,88.04
2018-03-08T05:31:24.383Z,86.41
2018-03-08T05:33:53.468Z,87.25
2018-03-08T05:36:22.729Z,87.87
2018-03-08T05:38:52.233Z,88.20
2018-03-08T05:41:21.418Z,88.95
2018-03-08T05:43:50.528Z,87.02
2018-03-08T05:46:19.931Z,87.72
2018-03-08T05:48:49.066Z,88.02
2018-03-08T05:51:18.086Z,89.22
2018-03-08T05:53:47.105Z,89.69
2018-03-08T05:56:16.253Z,89.60
2018-03-08T05:58:45.401Z,89.45
2018-03-08T06:01:21.176Z,89.75
2018-03-08T06:03:50.410Z,89.66
2018-03-08T06:06:19.995Z,88.90
2018-03-08T06:08:49.549Z,88.73
2018-03-08T06:11:19.021Z,88.01
2018-03-08T06:13:48.077Z,87.32
2018-03-08T06:16:17.362Z,87.85
2018-03-08T06:18:46.427Z,87.58
2018-03-08T06:21:15.614Z,88.20
2018-03-08T06:23:44.929Z,87.63
2018-03-08T06:26:14.284Z,87.16
2018-03-08T06:28:43.990Z,87.11
2018-03-08T06:31:13.605Z,86.69
2018-03-08T06:33:43.051Z,85.38
2018-03-08T06:36:12.576Z,88.37
2018-03-08T06:38:41.909Z,83.97
2018-03-08T06:41:11.045Z,81.87
2018-03-08T06:43:40.575Z,84.00
2018-03-08T06:46:10.232Z,85.01
2018-03-08T06:48:39.515Z,84.64
2018-03-08T06:51:08.655Z,84.08
2018-03-08T06:53:37.653Z,84.59
2018-03-08T06:56:07.068Z,84.91
2018-03-08T06:58:36.204Z,85.02
2018-03-08T07:01:05.473Z,83.81
2018-03-08T07:03:34.661Z,83.38
2018-03-08T07:06:03.776Z,83.10
2018-03-08T07:08:33.078Z,82.07
2018-03-08T07:11:02.152Z,81.77
2018-03-08T07:13:31.499Z,79.93
2018-03-08T07:16:00.945Z,80.82
2018-03-08T07:18:30.459Z,80.50
2018-03-08T07:20:59.909Z,79.04
2018-03-08T07:23:29.133Z,79.64
2018-03-08T07:25:58.356Z,77.19
2018-03-08T07:28:27.762Z,77.69
2018-03-08T07:30:58.100Z,76.22
2018-03-08T07:33:27.495Z,76.52
2018-03-08T07:35:56.890Z,77.52
2018-03-08T07:38:26.025Z,77.13
2018-03-08T07:40:55.647Z,75.30
2018-03-08T07:43:24.893Z,76.50
2018-03-08T07:45:54.047Z,75.99
2018-03-08T07:48:23.302Z,75.96
2018-03-08T07:50:52.636Z,73.68
2018-03-08T07:53:21.889Z,72.40
2018-03-08T07:55:51.338Z,69.95
2018-03-08T07:58:20.627Z,68.46
2018-03-08T08:00:50.010Z,67.59
2018-03-08T08:03:19.407Z,68.27
2018-03-08T08:05:59.982Z,66.70
2018-03-08T08:08:37.112Z,64.78
2018-03-08T08:11:06.366Z,64.78
2018-03-08T08:13:35.894Z,64.36
2018-03-08T08:16:05.275Z,65.03
2018-03-08T08:18:34.929Z,62.72
2018-03-08T08:21:04.249Z,63.20
2018-03-08T08:23:33.838Z,62.00
2018-03-08T08:26:03.117Z,63.61
2018-03-08T08:28:32.734Z,64.67
2018-03-08T08:31:02.039Z,63.71
2018-03-08T08:33:31.602Z,64.28
2018-03-08T08:36:01.164Z,63.71
2018-03-08T08:38:30.438Z,63.79
2018-03-08T08:40:59.697Z,63.68
2018-03-08T08:43:29.109Z,62.43
2018-03-08T08:45:58.409Z,61.71
2018-03-08T08:48:27.914Z,60.10
2018-03-08T08:50:57.268Z,61.65
2018-03-08T08:53:26.685Z,62.26
2018-03-08T08:55:55.931Z,62.27
2018-03-08T08:58:25.539Z,62.28
2018-03-08T09:00:54.501Z,62.75
2018-03-08T09:03:23.832Z,61.07
2018-03-08T09:05:53.121Z,61.12
2018-03-08T09:08:22.427Z,59.81
2018-03-08T09:10:51.842Z,60.58
2018-03-08T09:13:20.987Z,60.54
2018-03-08T09:15:50.069Z,61.36
2018-03-08T09:18:19.069Z,64.00
2018-03-08T09:20:48.590Z,61.31
2018-03-08T09:23:17.780Z,64.05
2018-03-08T09:25:47.151Z,62.98
2018-03-08T09:28:16.542Z,62.05
2018-03-08T09:30:46.030Z,62.39
2018-03-08T09:33:15.499Z,61.58
2018-03-08T09:35:44.633Z,60.12
2018-03-08T09:38:13.893Z,60.50
2018-03-08T09:40:43.796Z,60.50
2018-03-08T09:43:13.208Z,61.18
2018-03-08T09:45:42.563Z,63.44
2018-03-08T09:48:11.763Z,62.36
2018-03-08T09:50:41.629Z,62.30
2018-03-08T09:53:11.637Z,60.97
2018-03-08T09:55:41.571Z,60.72
2018-03-08T09:58:11.415Z,59.54
2018-03-08T10:00:40.931Z,59.94
2018-03-08T10:03:10.435Z,60.39
2018-03-08T10:05:39.718Z,62.61
2018-03-08T10:08:09.642Z,60.55
2018-03-08T10:10:38.851Z,61.55
2018-03-08T10:13:08.410Z,60.58
2018-03-08T10:15:37.857Z,62.51
2018-03-08T10:18:07.469Z,61.51
2018-03-08T10:20:36.718Z,62.71
2018-03-08T10:23:06.299Z,61.17
2018-03-08T10:25:35.464Z,62.15
2018-03-08T10:28:05.693Z,62.29
2018-03-08T10:30:35.342Z,62.40
2018-03-08T10:33:04.716Z,62.10
2018-03-08T10:35:34.364Z,62.74
2018-03-08T10:38:03.753Z,62.04
2018-03-08T10:43:02.300Z,60.62
2018-03-08T10:45:31.561Z,63.97
2018-03-08T10:48:00.713Z,61.99
2018-03-08T10:50:30.074Z,62.39
2018-03-08T10:52:59.453Z,64.57
2018-03-08T10:55:28.557Z,65.19
2018-03-08T10:57:57.822Z,64.07
2018-03-08T11:00:32.892Z,65.17
2018-03-08T11:03:06.980Z,65.50
2018-03-08T11:05:41.048Z,64.09
2018-03-08T11:08:10.685Z,65.52
2018-03-08T11:10:39.943Z,67.09
2018-03-08T11:13:09.425Z,65.95
2018-03-08T11:15:38.961Z,66.83
2018-03-08T11:18:08.101Z,67.03
2018-03-08T11:20:37.301Z,65.41
2018-03-08T11:23:06.543Z,66.69
2018-03-08T11:25:35.688Z,66.78
2018-03-08T11:28:05.107Z,64.36
2018-03-08T11:30:34.537Z,65.71
2018-03-08T11:33:04.311Z,66.97
2018-03-08T11:35:33.610Z,65.38
2018-03-08T11:38:02.879Z,63.09
2018-03-08T11:40:32.137Z,64.86
2018-03-08T11:43:01.515Z,64.72
2018-03-08T11:45:30.859Z,65.17
2018-03-08T11:48:00.018Z,64.72
2018-03-08T11:50:29.631Z,64.59
2018-03-08T11:52:59.025Z,66.27
2018-03-08T11:55:28.565Z,64.21
2018-03-08T11:57:57.685Z,62.37
2018-03-08T12:00:26.838Z,64.58
2018-03-08T12:02:56.078Z,65.07
2018-03-08T12:05:25.742Z,66.15
2018-03-08T12:07:54.739Z,65.45
2018-03-08T12:10:24.097Z,66.55
2018-03-08T12:12:53.472Z,65.28
2018-03-08T12:15:22.802Z,65.82
2018-03-08T12:17:52.644Z,66.43
2018-03-08T12:20:21.846Z,67.50
2018-03-08T12:22:51.189Z,65.39
2018-03-08T12:25:20.282Z,66.75
2018-03-08T12:27:49.679Z,64.41
2018-03-08T12:30:18.847Z,62.40
2018-03-08T12:32:48.332Z,63.69
2018-03-08T12:35:17.753Z,64.21
2018-03-08T12:37:47.226Z,63.32
2018-03-08T12:40:16.779Z,62.43
2018-03-08T12:42:45.965Z,62.94
2018-03-08T12:45:15.313Z,61.81
2018-03-08T12:47:44.925Z,65.82
2018-03-08T12:50:14.481Z,62.00
2018-03-08T12:52:44.013Z,64.03
2018-03-08T12:55:13.454Z,66.22
2018-03-08T12:57:42.606Z,65.60
2018-03-08T13:00:11.911Z,67.33
2018-03-08T13:02:41.303Z,68.00
2018-03-08T13:05:10.622Z,69.05
2018-03-08T13:07:39.809Z,65.78
2018-03-08T13:10:09.239Z,67.56
2018-03-08T13:12:38.502Z,65.59
2018-03-08T13:15:07.614Z,69.44
2018-03-08T13:17:36.950Z,67.32
2018-03-08T13:20:06.470Z,67.07
2018-03-08T13:22:35.854Z,66.08
2018-03-08T13:25:05.239Z,66.94
2018-03-08T13:27:34.732Z,65.11
2018-03-08T13:30:04.026Z,64.82
2018-03-08T13:32:33.242Z,65.64
2018-03-08T13:35:02.583Z,68.72
2018-03-08T13:37:31.917Z,66.92
2018-03-08T13:40:01.486Z,68.11
2018-03-08T13:42:31.359Z,68.31
2018-03-08T13:45:00.660Z,66.73
2018-03-08T13:47:30.053Z,68.68
2018-03-08T13:49:59.196Z,68.87
2018-03-08T13:52:28.669Z,68.01
2018-03-08T13:54:57.911Z,68.70
2018-03-08T13:57:27.149Z,66.72
2018-03-08T13:59:56.342Z,68.32
2018-03-08T14:02:26.257Z,70.59
2018-03-08T14:04:55.478Z,69.65
2018-03-08T14:07:24.762Z,70.23
2018-03-08T14:09:53.913Z,71.09
2018-03-08T14:12:23.419Z,69.84
2018-03-08T14:14:52.814Z,69.99
2018-03-08T14:17:22.374Z,71.29
2018-03-08T14:19:51.613Z,70.78
2018-03-08T14:22:20.868Z,70.43
2018-03-08T14:24:50.080Z,73.58
2018-03-08T14:27:19.530Z,73.83
2018-03-08T14:29:48.617Z,71.51
2018-03-08T14:32:18.135Z,72.72
2018-03-08T14:34:47.277Z,74.45
2018-03-08T14:37:16.353Z,74.05
2018-03-08T14:39:45.362Z,74.42
2018-03-08T14:42:15.044Z,73.27
2018-03-08T14:44:44.375Z,74.02
2018-03-08T14:47:13.572Z,73.63
2018-03-08T14:49:42.685Z,72.77
2018-03-08T14:52:11.886Z,72.55
2018-03-08T14:54:41.382Z,71.43
2018-03-08T14:57:11.681Z,72.71
2018-03-08T14:59:41.442Z,73.21
2018-03-08T15:02:11.074Z,71.43
2018-03-08T15:04:40.417Z,71.87
2018-03-08T15:07:09.708Z,73.67
2018-03-08T15:09:39.057Z,73.79
2018-03-08T15:12:08.649Z,74.04
2018-03-08T15:14:37.834Z,74.64
2018-03-08T15:17:07.487Z,73.85
2018-03-08T15:19:36.692Z,75.16
2018-03-08T15:22:06.198Z,77.22
2018-03-08T15:24:35.435Z,76.72
2018-03-08T15:27:04.799Z,77.30
2018-03-08T15:29:33.794Z,75.59
2018-03-08T15:32:03.077Z,75.62
2018-03-08T15:34:32.343Z,76.65
2018-03-08T15:37:01.637Z,79.28
2018-03-08T15:39:30.833Z,78.17
2018-03-08T15:42:00.351Z,79.60
2018-03-08T15:44:30.013Z,79.88
2018-03-08T15:46:59.259Z,80.94
2018-03-08T15:49:28.653Z,80.45
2018-03-08T15:51:57.913Z,81.28
2018-03-08T15:54:26.982Z,81.78
2018-03-08T15:56:56.203Z,81.39
2018-03-08T15:59:25.486Z,81.31
2018-03-08T16:01:54.566Z,81.22
2018-03-08T16:04:24.106Z,80.41
2018-03-08T16:10:29.467Z,81.57
2018-03-08T16:12:58.564Z,82.46
2018-03-08T16:15:27.605Z,82.32
2018-03-08T16:17:57.124Z,82.90
2018-03-08T16:20:26.309Z,82.91
2018-03-08T16:22:55.472Z,83.00
2018-03-08T16:25:24.776Z,83.37
2018-03-08T16:27:54.070Z,82.83
2018-03-08T16:30:23.245Z,83.08
2018-03-08T16:32:52.401Z,82.98
2018-03-08T16:35:21.661Z,82.66
2018-03-08T16:37:50.901Z,82.83
2018-03-08T16:40:19.997Z,82.64
2018-03-08T16:42:49.429Z,83.05
2018-03-08T16:45:18.490Z,83.31
2018-03-08T16:47:47.645Z,83.48
2018-03-08T16:50:17.011Z,83.12
2018-03-08T16:52:46.201Z,83.13
2018-03-08T16:55:15.302Z,83.22
2018-03-08T16:57:44.456Z,83.17
2018-03-08T17:00:13.889Z,83.39
2018-03-08T17:02:43.258Z,83.39
2018-03-08T17:05:12.580Z,83.16
2018-03-08T17:07:42.143Z,82.99
2018-03-08T17:10:11.155Z,82.14
2018-03-08T17:12:40.193Z,82.09
2018-03-08T17:15:09.493Z,81.13
2018-03-08T17:17:39.305Z,81.39
2018-03-08T17:20:08.640Z,81.22
2018-03-08T17:22:37.577Z,81.11
2018-03-08T17:25:06.825Z,78.75
2018-03-08T17:27:36.330Z,78.16
2018-03-08T17:30:05.405Z,80.15
2018-03-08T17:32:34.487Z,80.56
2018-03-08T17:35:03.491Z,81.45
2018-03-08T17:40:36.933Z,82.25
2018-03-08T17:43:06.507Z,80.05
2018-03-08T17:45:36.047Z,79.92
2018-03-08T17:48:05.418Z,78.49
2018-03-08T17:50:34.635Z,78.99
2018-03-08T17:53:03.897Z,78.90
2018-03-08T17:58:27.251Z,76.54
2018-03-08T18:00:56.237Z,74.92
2018-03-08T18:03:25.206Z,76.05
2018-03-08T18:05:54.813Z,79.16
2018-03-08T18:08:23.989Z,81.18
2018-03-08T18:10:53.204Z,82.27
2018-03-08T18:13:22.329Z,82.92
2018-03-08T18:15:51.775Z,82.81
2018-03-08T18:18:20.705Z,80.54
2018-03-08T18:20:50.004Z,82.15
2018-03-08T18:23:19.482Z,81.96
2018-03-08T18:25:48.484Z,82.12
2018-03-08T18:28:17.729Z,82.40
2018-03-08T18:30:46.953Z,82.72
2018-03-08T18:33:16.669Z,83.19
2018-03-08T18:35:46.053Z,83.61
2018-03-08T18:38:15.445Z,83.16
2018-03-08T18:40:44.543Z,83.39
2018-03-08T18:43:13.805Z,84.44
2018-03-08T18:45:43.041Z,84.74
2018-03-08T18:48:12.355Z,84.94
2018-03-08T18:50:41.643Z,84.44
2018-03-08T18:53:10.735Z,84.42
2018-03-08T18:55:39.997Z,85.23
2018-03-08T18:58:29.758Z,85.40
2018-03-08T19:00:58.885Z,84.93
2018-03-08T19:03:28.081Z,85.14
2018-03-08T19:05:57.568Z,84.50
2018-03-08T19:08:26.727Z,85.00
2018-03-08T19:10:56.197Z,83.93
2018-03-08T19:13:25.204Z,84.47
2018-03-08T19:15:54.448Z,82.83
2018-03-08T19:18:23.813Z,84.09
2018-03-08T19:20:53.310Z,85.21
2018-03-08T19:23:22.567Z,81.84
2018-03-08T19:25:51.809Z,82.43
2018-03-08T19:28:21.786Z,83.68
2018-03-08T19:30:51.026Z,84.27
2018-03-08T19:33:20.136Z,85.21
2018-03-08T19:35:49.374Z,85.51
2018-03-08T19:38:18.427Z,85.26
2018-03-08T19:40:47.821Z,85.80
2018-03-08T19:43:16.937Z,85.84
2018-03-08T19:45:46.085Z,85.87
2018-03-08T19:48:15.227Z,86.10
2018-03-08T19:50:44.398Z,86.12
2018-03-08T19:53:13.422Z,85.32
2018-03-08T19:55:42.809Z,84.93
2018-03-08T19:58:12.114Z,83.12
2018-03-08T20:00:41.082Z,82.90
2018-03-08T20:03:10.255Z,84.04
2018-03-08T20:05:39.569Z,84.78
2018-03-08T20:08:08.777Z,85.29
2018-03-08T20:10:37.954Z,84.08
2018-03-08T20:13:07.001Z,85.16
2018-03-08T20:15:36.309Z,85.43
2018-03-08T20:18:05.582Z,86.20
2018-03-08T20:20:34.697Z,86.04
2018-03-08T20:23:04.031Z,85.62
2018-03-08T20:25:33.329Z,84.91
2018-03-08T20:28:02.589Z,84.75
2018-03-08T20:30:32.197Z,85.82
2018-03-08T20:33:01.293Z,85.04
2018-03-08T20:35:30.637Z,85.60
2018-03-08T20:38:00.104Z,87.37
2018-03-08T20:40:29.615Z,87.71
2018-03-08T20:42:58.853Z,88.00
2018-03-08T20:45:28.305Z,88.84
2018-03-08T20:47:57.710Z,89.21
2018-03-08T20:50:27.948Z,89.06
2018-03-08T20:52:57.143Z,89.14
2018-03-08T20:55:26.279Z,89.42
2018-03-08T20:57:55.381Z,89.56
2018-03-08T21:00:24.524Z,89.42
2018-03-08T21:02:53.759Z,89.60
2018-03-08T21:05:22.861Z,89.96
2018-03-08T21:07:52.018Z,89.58
2018-03-08T21:10:21.046Z,90.30
2018-03-08T21:12:50.298Z,90.72
2018-03-08T21:15:19.775Z,92.35
2018-03-08T21:17:48.969Z,95.70
2018-03-08T21:20:18.243Z,88.50
2018-03-08T21:22:47.352Z,89.58
2018-03-08T21:25:16.681Z,90.43
2018-03-08T21:27:46.370Z,91.37
2018-03-08T21:30:15.613Z,91.42
2018-03-08T21:32:44.905Z,91.65
2018-03-08T21:35:14.159Z,91.68
2018-03-08T21:37:43.412Z,91.76
2018-03-08T21:40:12.623Z,91.87
2018-03-08T21:42:41.723Z,91.75
2018-03-08T21:45:10.919Z,92.13
2018-03-08T21:47:40.311Z,91.86
2018-03-08T21:50:09.761Z,92.34
2018-03-08T21:52:39.117Z,92.12
2018-03-08T21:55:08.621Z,92.70
2018-03-08T21:57:37.724Z,92.13
2018-03-08T22:00:07.031Z,91.79
2018-03-08T22:02:36.591Z,91.86
2018-03-08T22:05:05.835Z,91.69
2018-03-08T22:07:35.166Z,91.80
2018-03-08T22:10:04.325Z,91.68
2018-03-08T22:12:33.538Z,91.00
2018-03-08T22:15:02.825Z,88.03
2018-03-08T22:17:32.129Z,89.24
2018-03-08T22:20:01.373Z,90.16
2018-03-08T22:22:30.634Z,90.92
2018-03-08T22:24:59.823Z,91.20
2018-03-08T22:27:28.892Z,91.12
2018-03-08T22:29:58.097Z,90.12
2018-03-08T22:32:27.462Z,90.47
2018-03-08T22:34:56.635Z,91.03
2018-03-08T22:37:25.954Z,91.22
2018-03-08T22:39:55.117Z,91.75
2018-03-08T22:42:24.329Z,91.79
2018-03-08T22:44:53.613Z,91.31
2018-03-08T22:47:23.109Z,91.75
2018-03-08T22:49:52.375Z,92.04
2018-03-08T22:52:21.829Z,91.79
2018-03-08T22:54:51.402Z,92.00
2018-03-08T22:57:22.480Z,92.19
2018-03-08T22:59:52.039Z,91.91
2018-03-08T23:02:36.058Z,91.98
2018-03-08T23:05:05.586Z,91.82
2018-03-08T23:07:34.790Z,91.43
2018-03-08T23:10:03.990Z,92.06
2018-03-08T23:12:33.443Z,91.90
2018-03-08T23:15:02.865Z,90.87
2018-03-08T23:17:32.136Z,91.81
2018-03-08T23:20:01.287Z,92.59
2018-03-08T23:22:30.749Z,92.06
2018-03-08T23:25:00.102Z,91.95
2018-03-08T23:27:29.653Z,92.50
2018-03-08T23:29:58.930Z,92.18
2018-03-08T23:32:27.957Z,91.54
2018-03-08T23:34:57.199Z,92.32
2018-03-08T23:37:26.273Z,92.17
2018-03-08T23:39:55.745Z,92.66
2018-03-08T23:42:25.157Z,92.77
2018-03-08T23:44:54.398Z,92.79
2018-03-08T23:47:23.243Z,92.18
2018-03-08T23:49:52.679Z,91.98
2018-03-08T23:52:22.085Z,91.89
2018-03-08T23:54:51.485Z,91.48
2018-03-08T23:57:20.850Z,89.48
2018-03-08T23:59:50.098Z,88.19
